createdAt,value
2019-03-18T00:02:15.442Z,97994.98
2019-03-18T00:04:46.996Z,97994.72
2019-03-18T00:07:18.581Z,97997.44
2019-03-18T00:09:50.391Z,98003.92
2019-03-18T00:12:22.001Z,98000.43
2019-03-18T00:15:01.116Z,98003.53
2019-03-18T00:17:27.085Z,98005.94
2019-03-18T00:19:58.699Z,98002.05
2019-03-18T00:22:30.232Z,98010.52
2019-03-18T00:25:01.782Z,98003.34
2019-03-18T00:27:35.522Z,98003.66
2019-03-18T00:30:09.303Z,98000.56
2019-03-18T00:32:41.116Z,97997.97
2019-03-18T00:35:13.151Z,97996.40
2019-03-18T00:37:44.987Z,97997.62
2019-03-18T00:40:16.933Z,98002.32
2019-03-18T00:42:48.481Z,97996.68
2019-03-18T00:45:20.375Z,97995.23
2019-03-18T00:47:52.207Z,97991.66
2019-03-18T00:50:23.772Z,97997.38
2019-03-18T00:52:55.328Z,97997.42
2019-03-18T00:55:26.968Z,97998.17
2019-03-18T00:57:59.247Z,98002.20
2019-03-18T01:00:30.803Z,97999.61
2019-03-18T01:03:02.357Z,97998.16
2019-03-18T01:05:33.918Z,97996.98
2019-03-18T01:08:06.411Z,97988.70
2019-03-18T01:10:37.982Z,97987.56
2019-03-18T01:13:09.510Z,97980.16
2019-03-18T01:15:41.089Z,97986.27
2019-03-18T01:18:12.639Z,97979.80
2019-03-18T01:20:45.254Z,97981.53
2019-03-18T01:23:16.795Z,97978.70
2019-03-18T01:25:48.348Z,97986.44
2019-03-18T01:28:19.937Z,97985.66
2019-03-18T01:30:51.501Z,97975.46
2019-03-18T01:33:23.029Z,97976.02
2019-03-18T01:35:54.573Z,97976.09
2019-03-18T01:38:26.386Z,97973.78
2019-03-18T01:40:57.955Z,97969.59
2019-03-18T01:43:29.489Z,97970.89
2019-03-18T01:46:01.055Z,97979.70
2019-03-18T01:48:32.597Z,97988.14
2019-03-18T01:51:04.180Z,97984.18
2019-03-18T01:53:35.717Z,97987.08
2019-03-18T01:56:08.544Z,97983.51
2019-03-18T01:58:40.088Z,97985.03
2019-03-18T02:01:11.970Z,97985.70
2019-03-18T02:03:43.543Z,97988.16
2019-03-18T02:06:15.134Z,97983.27
2019-03-18T02:08:46.743Z,97981.91
2019-03-18T02:11:18.292Z,97979.03
2019-03-18T02:13:49.906Z,97980.09
2019-03-18T02:16:21.443Z,97977.12
2019-03-18T02:18:53.025Z,97980.09
2019-03-18T02:21:24.579Z,97983.81
2019-03-18T02:23:56.414Z,97985.11
2019-03-18T02:26:27.943Z,97980.53
2019-03-18T02:28:59.501Z,97989.15
2019-03-18T02:31:31.049Z,97988.59
2019-03-18T02:34:02.618Z,97998.44
2019-03-18T02:36:35.651Z,97995.69
2019-03-18T02:39:09.294Z,97997.89
2019-03-18T02:41:42.195Z,97992.72
2019-03-18T02:44:13.728Z,97995.38
2019-03-18T02:46:45.266Z,97992.64
2019-03-18T02:49:16.807Z,97996.75
2019-03-18T02:51:48.380Z,97994.25
2019-03-18T02:54:20.203Z,97994.98
2019-03-18T02:56:52.044Z,98003.14
2019-03-18T02:59:23.606Z,98001.17
2019-03-18T03:01:55.137Z,98004.89
2019-03-18T03:04:26.694Z,98003.44
2019-03-18T03:06:58.224Z,98013.57
2019-03-18T03:09:30.005Z,98010.23
2019-03-18T03:12:01.551Z,98022.38
2019-03-18T03:14:33.100Z,98021.70
2019-03-18T03:17:04.949Z,98017.97
2019-03-18T03:19:36.778Z,98021.61
2019-03-18T03:22:08.348Z,98019.56
2019-03-18T03:24:39.912Z,98031.05
2019-03-18T03:27:11.703Z,98029.61
2019-03-18T03:29:43.521Z,98028.63
2019-03-18T03:32:15.434Z,98026.05
2019-03-18T03:34:46.931Z,98024.53
2019-03-18T03:37:18.526Z,98022.83
2019-03-18T03:39:50.077Z,98033.09
2019-03-18T03:42:21.817Z,98036.39
2019-03-18T03:44:53.611Z,98030.45
2019-03-18T03:47:25.446Z,98036.98
2019-03-18T03:49:56.984Z,98040.63
2019-03-18T03:52:30.134Z,98047.95
2019-03-18T03:55:01.941Z,98048.23
2019-03-18T03:57:33.507Z,98045.97
2019-03-18T04:00:06.212Z,98045.44
2019-03-18T04:02:37.773Z,98042.47
2019-03-18T04:05:09.457Z,98047.88
2019-03-18T04:07:41.320Z,98045.65
2019-03-18T04:10:13.987Z,98045.27
2019-03-18T04:12:45.544Z,98043.08
2019-03-18T04:15:17.098Z,98047.34
2019-03-18T04:17:48.932Z,98045.05
2019-03-18T04:20:20.470Z,98047.26
2019-03-18T04:22:52.033Z,98049.45
2019-03-18T04:25:23.582Z,98050.00
2019-03-18T04:27:55.432Z,98054.92
2019-03-18T04:30:26.955Z,98063.30
2019-03-18T04:32:58.780Z,98060.86
2019-03-18T04:35:31.271Z,98057.30
2019-03-18T04:38:03.107Z,98065.59
2019-03-18T04:40:34.637Z,98068.70
2019-03-18T04:43:06.192Z,98071.69
2019-03-18T04:45:37.716Z,98072.56
2019-03-18T04:48:09.281Z,98070.27
2019-03-18T04:50:40.836Z,98072.86
2019-03-18T04:53:12.388Z,98077.80
2019-03-18T04:55:46.994Z,98085.48
2019-03-18T04:58:17.208Z,98078.16
2019-03-18T05:00:48.743Z,98082.20
2019-03-18T05:03:20.286Z,98080.44
2019-03-18T05:05:51.802Z,98085.69
2019-03-18T05:08:23.363Z,98086.47
2019-03-18T05:10:54.912Z,98082.59
2019-03-18T05:13:26.722Z,98084.27
2019-03-18T05:15:58.283Z,98084.73
2019-03-18T05:18:29.858Z,98096.66
2019-03-18T05:21:01.400Z,98095.75
2019-03-18T05:23:32.956Z,98103.52
2019-03-18T05:26:04.488Z,98104.96
2019-03-18T05:28:36.064Z,98106.33
2019-03-18T05:31:07.603Z,98113.87
2019-03-18T05:33:39.192Z,98114.11
2019-03-18T05:36:10.762Z,98118.66
2019-03-18T05:38:42.353Z,98125.73
2019-03-18T05:41:13.918Z,98122.70
2019-03-18T05:43:45.468Z,98124.16
2019-03-18T05:46:17.082Z,98123.16
2019-03-18T05:48:50.419Z,98122.23
2019-03-18T05:51:21.994Z,98117.38
2019-03-18T05:53:54.631Z,98110.66
2019-03-18T05:56:26.185Z,98114.11
2019-03-18T05:58:57.727Z,98119.36
2019-03-18T06:01:29.376Z,98126.42
2019-03-18T06:04:00.920Z,98136.55
2019-03-18T06:06:32.484Z,98139.69
2019-03-18T06:09:05.114Z,98139.53
2019-03-18T06:11:36.733Z,98145.78
2019-03-18T06:14:08.310Z,98154.84
2019-03-18T06:16:39.957Z,98158.56
2019-03-18T06:19:11.534Z,98157.72
2019-03-18T06:21:44.203Z,98171.03
2019-03-18T06:24:15.790Z,98170.88
2019-03-18T06:26:47.346Z,98174.06
2019-03-18T06:29:19.655Z,98184.12
2019-03-18T06:31:51.238Z,98196.76
2019-03-18T06:34:22.784Z,98200.41
2019-03-18T06:36:54.356Z,98199.42
2019-03-18T06:39:25.926Z,98203.23
2019-03-18T06:41:57.574Z,98208.96
2019-03-18T06:44:29.123Z,98208.28
2019-03-18T06:47:00.680Z,98217.25
2019-03-18T06:49:32.235Z,98221.84
2019-03-18T06:52:03.826Z,98231.58
2019-03-18T06:54:37.165Z,98233.03
2019-03-18T06:57:08.722Z,98231.66
2019-03-18T06:59:40.341Z,98236.22
2019-03-18T07:02:11.915Z,98234.38
2019-03-18T07:04:43.572Z,98234.77
2019-03-18T07:07:15.136Z,98237.95
2019-03-18T07:09:46.712Z,98238.58
2019-03-18T07:12:18.272Z,98244.83
2019-03-18T07:14:49.885Z,98242.91
2019-03-18T07:17:21.557Z,98245.19
2019-03-18T07:19:53.125Z,98243.53
2019-03-18T07:22:24.765Z,98253.95
2019-03-18T07:24:56.340Z,98253.48
2019-03-18T07:27:27.883Z,98255.20
2019-03-18T07:29:59.437Z,98258.61
2019-03-18T07:32:30.981Z,98259.05
2019-03-18T07:35:02.548Z,98267.11
2019-03-18T07:37:34.083Z,98268.91
2019-03-18T07:40:06.548Z,98273.03
2019-03-18T07:42:38.100Z,98275.16
2019-03-18T07:45:11.109Z,98281.33
2019-03-18T07:47:42.631Z,98281.91
2019-03-18T07:50:14.237Z,98288.25
2019-03-18T07:52:45.798Z,98286.83
2019-03-18T07:55:17.418Z,98292.98
2019-03-18T07:57:48.946Z,98298.18
2019-03-18T08:00:20.499Z,98299.01
2019-03-18T08:02:52.075Z,98296.74
2019-03-18T08:05:23.655Z,98301.00
2019-03-18T08:07:55.294Z,98307.48
2019-03-18T08:10:26.862Z,98302.89
2019-03-18T08:12:58.771Z,98301.91
2019-03-18T08:15:30.300Z,98309.97
2019-03-18T08:18:01.856Z,98310.05
2019-03-18T08:20:33.434Z,98307.45
2019-03-18T08:23:04.979Z,98322.48
2019-03-18T08:25:36.556Z,98319.45
2019-03-18T08:28:08.112Z,98331.05
2019-03-18T08:30:39.654Z,98331.23
2019-03-18T08:33:12.964Z,98325.30
2019-03-18T08:35:44.564Z,98328.72
2019-03-18T08:38:16.130Z,98329.93
2019-03-18T08:40:47.691Z,98329.58
2019-03-18T08:43:19.282Z,98336.89
2019-03-18T08:45:50.816Z,98331.15
2019-03-18T08:48:22.425Z,98335.46
2019-03-18T08:50:53.968Z,98337.20
2019-03-18T08:53:27.008Z,98345.92
2019-03-18T08:55:58.630Z,98342.42
2019-03-18T08:58:30.229Z,98342.73
2019-03-18T09:01:01.782Z,98344.53
2019-03-18T09:03:33.376Z,98341.25
2019-03-18T09:06:04.944Z,98340.00
2019-03-18T09:08:36.530Z,98347.10
2019-03-18T09:11:08.179Z,98344.22
2019-03-18T09:13:39.775Z,98341.91
2019-03-18T09:16:11.576Z,98341.91
2019-03-18T09:18:43.134Z,98341.52
2019-03-18T09:21:14.882Z,98341.35
2019-03-18T09:23:46.436Z,98352.96
2019-03-18T09:26:18.213Z,98353.55
2019-03-18T09:28:49.764Z,98362.28
2019-03-18T09:31:21.464Z,98356.14
2019-03-18T09:33:53.106Z,98355.19
2019-03-18T09:36:24.689Z,98358.95
2019-03-18T09:38:56.272Z,98362.84
2019-03-18T09:41:27.862Z,98370.92
2019-03-18T09:43:59.422Z,98364.80
2019-03-18T09:46:31.038Z,98375.93
2019-03-18T09:49:20.724Z,98364.73
2019-03-18T09:51:41.791Z,98374.09
2019-03-18T09:54:13.471Z,98374.73
2019-03-18T09:56:45.064Z,98377.67
2019-03-18T09:59:16.648Z,98385.24
2019-03-18T10:01:48.227Z,98382.16
2019-03-18T10:04:19.831Z,98388.20
2019-03-18T10:06:51.413Z,98384.77
2019-03-18T10:09:22.960Z,98381.87
2019-03-18T10:11:54.527Z,98378.48
2019-03-18T10:14:26.138Z,98382.94
2019-03-18T10:17:09.108Z,98382.11
2019-03-18T10:19:33.635Z,98392.89
2019-03-18T10:22:04.299Z,98387.76
2019-03-18T10:24:35.863Z,98388.92
2019-03-18T10:27:07.472Z,98393.30
2019-03-18T10:29:39.050Z,98385.63
2019-03-18T10:32:10.726Z,98390.79
2019-03-18T10:34:42.306Z,98386.61
2019-03-18T10:37:13.906Z,98387.58
2019-03-18T10:39:45.512Z,98396.02
2019-03-18T10:42:17.120Z,98395.54
2019-03-18T10:44:48.682Z,98399.89
2019-03-18T10:47:20.260Z,98389.78
2019-03-18T10:49:51.827Z,98396.75
2019-03-18T10:52:24.478Z,98386.00
2019-03-18T10:54:57.087Z,98385.55
2019-03-18T10:57:28.679Z,98386.08
2019-03-18T11:00:01.446Z,98386.27
2019-03-18T11:02:33.803Z,98391.50
2019-03-18T11:05:08.192Z,98385.31
2019-03-18T11:07:39.282Z,98383.03
2019-03-18T11:10:12.575Z,98384.98
2019-03-18T11:12:44.396Z,98386.10
2019-03-18T11:15:15.972Z,98379.81
2019-03-18T11:17:47.529Z,98382.11
2019-03-18T11:20:19.112Z,98388.08
2019-03-18T11:22:50.677Z,98384.50
2019-03-18T11:25:22.269Z,98386.64
2019-03-18T11:27:53.903Z,98384.66
2019-03-18T11:30:25.497Z,98392.39
2019-03-18T11:32:57.055Z,98384.83
2019-03-18T11:35:28.680Z,98385.61
2019-03-18T11:38:02.087Z,98380.63
2019-03-18T11:40:33.678Z,98383.92
2019-03-18T11:43:05.269Z,98381.25
2019-03-18T11:45:36.831Z,98375.30
2019-03-18T11:48:08.467Z,98375.44
2019-03-18T11:50:41.415Z,98372.44
2019-03-18T11:53:14.655Z,98379.59
2019-03-18T11:55:46.498Z,98375.89
2019-03-18T11:58:18.105Z,98372.87
2019-03-18T12:00:49.683Z,98369.36
2019-03-18T12:03:21.293Z,98368.30
2019-03-18T12:05:52.934Z,98373.77
2019-03-18T12:08:24.520Z,98379.73
2019-03-18T12:10:56.087Z,98365.27
2019-03-18T12:13:27.701Z,98367.27
2019-03-18T12:15:59.295Z,98368.53
2019-03-18T12:18:30.913Z,98365.26
2019-03-18T12:21:02.477Z,98357.88
2019-03-18T12:23:34.077Z,98346.47
2019-03-18T12:26:05.664Z,98349.90
2019-03-18T12:28:37.203Z,98356.02
2019-03-18T12:31:08.777Z,98348.88
2019-03-18T12:33:40.362Z,98354.72
2019-03-18T12:36:11.990Z,98349.09
2019-03-18T12:38:43.555Z,98352.20
2019-03-18T12:41:15.310Z,98349.67
2019-03-18T12:43:46.897Z,98348.30
2019-03-18T12:46:18.511Z,98337.13
2019-03-18T12:48:50.096Z,98344.27
2019-03-18T12:51:21.947Z,98338.16
2019-03-18T12:53:54.580Z,98344.25
2019-03-18T12:56:27.232Z,98342.33
2019-03-18T12:58:58.819Z,98337.45
2019-03-18T13:01:30.547Z,98342.06
2019-03-18T13:04:02.133Z,98333.73
2019-03-18T13:06:33.787Z,98340.42
2019-03-18T13:09:08.376Z,98342.75
2019-03-18T13:11:40.155Z,98346.37
2019-03-18T13:14:12.807Z,98346.95
2019-03-18T13:16:44.404Z,98349.84
2019-03-18T13:19:15.988Z,98353.80
2019-03-18T13:21:47.704Z,98346.94
2019-03-18T13:24:19.306Z,98353.08
2019-03-18T13:26:50.874Z,98356.61
2019-03-18T13:29:22.476Z,98353.20
2019-03-18T13:31:54.104Z,98350.22
2019-03-18T13:34:25.650Z,98350.52
2019-03-18T13:36:57.242Z,98355.04
2019-03-18T13:39:28.800Z,98351.58
2019-03-18T13:42:00.479Z,98356.92
2019-03-18T13:44:33.273Z,98356.91
2019-03-18T13:47:04.947Z,98359.61
2019-03-18T13:49:36.503Z,98365.17
2019-03-18T13:52:08.089Z,98367.59
2019-03-18T13:54:39.722Z,98369.24
2019-03-18T13:57:11.280Z,98369.04
2019-03-18T13:59:42.883Z,98364.77
2019-03-18T14:02:14.493Z,98371.16
2019-03-18T14:04:46.102Z,98370.80
2019-03-18T14:07:17.699Z,98366.08
2019-03-18T14:09:49.541Z,98364.94
2019-03-18T14:12:21.123Z,98364.48
2019-03-18T14:14:52.765Z,98368.74
2019-03-18T14:17:24.381Z,98374.20
2019-03-18T14:19:55.958Z,98372.83
2019-03-18T14:22:27.605Z,98375.00
2019-03-18T14:24:59.192Z,98367.73
2019-03-18T14:27:30.780Z,98366.58
2019-03-18T14:30:02.358Z,98365.34
2019-03-18T14:32:35.037Z,98366.95
2019-03-18T14:35:07.232Z,98371.86
2019-03-18T14:37:38.820Z,98378.13
2019-03-18T14:40:12.460Z,98372.41
2019-03-18T14:42:44.051Z,98382.70
2019-03-18T14:45:17.880Z,98387.06
2019-03-18T14:47:49.456Z,98392.23
2019-03-18T14:50:21.047Z,98391.61
2019-03-18T14:52:52.687Z,98389.98
2019-03-18T14:55:24.268Z,98396.61
2019-03-18T14:57:56.010Z,98393.81
2019-03-18T15:00:27.736Z,98411.62
2019-03-18T15:02:59.336Z,98409.74
2019-03-18T15:05:31.107Z,98402.16
2019-03-18T15:08:02.706Z,98400.93
2019-03-18T15:10:34.262Z,98399.09
2019-03-18T15:13:05.878Z,98404.62
2019-03-18T15:15:37.464Z,98402.02
2019-03-18T15:18:09.008Z,98411.19
2019-03-18T15:20:40.695Z,98409.88
2019-03-18T15:23:12.279Z,98408.09
2019-03-18T15:25:43.853Z,98410.56
2019-03-18T15:28:15.440Z,98409.69
2019-03-18T15:30:47.028Z,98411.19
2019-03-18T15:33:18.634Z,98416.84
2019-03-18T15:35:50.209Z,98417.38
2019-03-18T15:38:22.079Z,98416.30
2019-03-18T15:40:54.772Z,98417.44
2019-03-18T15:43:27.443Z,98421.02
2019-03-18T15:45:59.036Z,98424.69
2019-03-18T15:48:30.599Z,98420.59
2019-03-18T15:51:02.346Z,98415.55
2019-03-18T15:53:33.908Z,98426.53
2019-03-18T15:56:05.480Z,98423.55
2019-03-18T15:58:37.077Z,98427.28
2019-03-18T16:01:08.650Z,98430.80
2019-03-18T16:03:40.404Z,98433.78
2019-03-18T16:06:11.996Z,98429.67
2019-03-18T16:08:43.644Z,98433.11
2019-03-18T16:11:15.491Z,98432.19
2019-03-18T16:13:47.069Z,98435.18
2019-03-18T16:16:18.695Z,98440.98
2019-03-18T16:18:50.309Z,98447.31
2019-03-18T16:21:21.918Z,98451.52
2019-03-18T16:23:53.526Z,98457.36
2019-03-18T16:26:25.125Z,98457.45
2019-03-18T16:28:56.734Z,98463.58
2019-03-18T16:31:28.347Z,98470.30
2019-03-18T16:33:59.969Z,98461.83
2019-03-18T16:36:33.109Z,98458.61
2019-03-18T16:39:06.157Z,98460.17
2019-03-18T16:41:37.750Z,98466.06
2019-03-18T16:44:09.351Z,98463.16
2019-03-18T16:46:40.949Z,98470.59
2019-03-18T16:49:12.564Z,98470.15
2019-03-18T16:51:45.147Z,98475.06
2019-03-18T16:54:16.774Z,98481.92
2019-03-18T16:56:48.315Z,98492.25
2019-03-18T16:59:19.866Z,98494.85
2019-03-18T17:01:51.478Z,98508.87
2019-03-18T17:04:23.042Z,98509.25
2019-03-18T17:06:54.652Z,98513.51
2019-03-18T17:09:26.225Z,98519.06
2019-03-18T17:11:58.907Z,98534.49
2019-03-18T17:14:31.582Z,98548.44
2019-03-18T17:17:03.177Z,98543.81
2019-03-18T17:19:35.998Z,98565.19
2019-03-18T17:22:07.652Z,98583.12
2019-03-18T17:24:40.312Z,98594.86
2019-03-18T17:27:14.699Z,98611.30
2019-03-18T17:29:47.793Z,98612.08
2019-03-18T17:32:19.360Z,98616.86
2019-03-18T17:34:52.069Z,98622.88
2019-03-18T17:37:23.693Z,98634.89
2019-03-18T17:39:55.290Z,98633.69
2019-03-18T17:42:26.854Z,98635.12
2019-03-18T17:44:58.410Z,98634.22
2019-03-18T17:47:30.968Z,98634.65
2019-03-18T17:50:02.599Z,98643.05
2019-03-18T17:52:34.223Z,98646.05
2019-03-18T17:55:06.326Z,98635.05
2019-03-18T17:57:37.923Z,98633.05
2019-03-18T18:00:15.053Z,98632.66
2019-03-18T18:02:46.657Z,98634.38
2019-03-18T18:05:18.494Z,98635.11
2019-03-18T18:07:50.108Z,98629.60
2019-03-18T18:10:21.691Z,98628.37
2019-03-18T18:12:53.302Z,98628.50
2019-03-18T18:15:24.837Z,98630.50
2019-03-18T18:17:56.461Z,98637.08
2019-03-18T18:20:28.048Z,98620.50
2019-03-18T18:22:59.749Z,98630.39
2019-03-18T18:25:31.689Z,98625.66
2019-03-18T18:28:03.620Z,98633.31
2019-03-18T18:30:35.469Z,98630.33
2019-03-18T18:33:08.134Z,98638.67
2019-03-18T18:35:39.918Z,98639.08
2019-03-18T18:38:11.937Z,98640.49
2019-03-18T18:40:43.816Z,98639.53
2019-03-18T18:43:15.719Z,98646.75
2019-03-18T18:45:47.349Z,98643.70
2019-03-18T18:48:18.998Z,98637.04
2019-03-18T18:50:50.976Z,98637.96
2019-03-18T18:53:26.653Z,98647.23
2019-03-18T18:55:55.983Z,98647.94
2019-03-18T18:58:27.600Z,98652.09
2019-03-18T19:00:59.211Z,98655.72
2019-03-18T19:03:30.858Z,98655.84
2019-03-18T19:06:02.486Z,98660.39
2019-03-18T19:08:34.081Z,98666.73
2019-03-18T19:11:05.774Z,98666.73
2019-03-18T19:13:37.406Z,98666.87
2019-03-18T19:16:09.014Z,98670.69
2019-03-18T19:18:42.206Z,98676.55
2019-03-18T19:21:13.850Z,98681.92
2019-03-18T19:23:45.478Z,98693.20
2019-03-18T19:26:17.438Z,98689.23
2019-03-18T19:28:49.059Z,98694.92
2019-03-18T19:31:20.730Z,98697.70
2019-03-18T19:33:52.431Z,98699.83
2019-03-18T19:36:24.375Z,98703.19
2019-03-18T19:38:56.087Z,98713.87
2019-03-18T19:41:27.691Z,98723.18
2019-03-18T19:43:59.355Z,98727.06
2019-03-18T19:46:31.049Z,98727.13
2019-03-18T19:49:03.062Z,98749.41
2019-03-18T19:51:34.657Z,98756.75
2019-03-18T19:54:06.343Z,98750.45
2019-03-18T19:56:37.945Z,98752.92
2019-03-18T19:59:09.544Z,98762.11
2019-03-18T20:01:41.123Z,98762.81
2019-03-18T20:04:13.070Z,98764.01
2019-03-18T20:06:44.676Z,98753.13
2019-03-18T20:09:16.369Z,98758.42
2019-03-18T20:11:48.011Z,98761.99
2019-03-18T20:14:19.875Z,98766.06
2019-03-18T20:16:51.533Z,98770.41
2019-03-18T20:19:25.588Z,98769.81
2019-03-18T20:21:56.589Z,98757.48
2019-03-18T20:24:28.270Z,98758.92
2019-03-18T20:26:59.861Z,98755.02
2019-03-18T20:29:31.519Z,98752.83
2019-03-18T20:32:03.129Z,98757.74
2019-03-18T20:34:34.709Z,98759.09
2019-03-18T20:37:06.576Z,98758.20
2019-03-18T20:39:39.119Z,98752.56
2019-03-18T20:42:10.805Z,98753.67
2019-03-18T20:44:43.777Z,98759.67
2019-03-18T20:47:15.410Z,98760.73
2019-03-18T20:49:47.303Z,98752.80
2019-03-18T20:52:18.953Z,98760.31
2019-03-18T20:54:50.812Z,98759.79
2019-03-18T20:57:22.729Z,98763.44
2019-03-18T20:59:54.454Z,98767.95
2019-03-18T21:02:27.570Z,98772.34
2019-03-18T21:04:59.328Z,98778.76
2019-03-18T21:07:30.981Z,98772.72
2019-03-18T21:10:02.578Z,98775.83
2019-03-18T21:12:34.515Z,98775.16
2019-03-18T21:15:07.087Z,98787.31
2019-03-18T21:17:38.690Z,98782.74
2019-03-18T21:20:14.060Z,98784.61
2019-03-18T21:22:45.641Z,98782.70
2019-03-18T21:25:17.674Z,98779.77
2019-03-18T21:27:49.588Z,98780.28
2019-03-18T21:30:21.822Z,98784.38
2019-03-18T21:32:54.693Z,98785.99
2019-03-18T21:35:26.567Z,98784.33
2019-03-18T21:37:58.487Z,98783.98
2019-03-18T21:40:30.134Z,98795.31
2019-03-18T21:43:01.756Z,98797.22
2019-03-18T21:45:33.800Z,98794.86
2019-03-18T21:48:05.666Z,98796.77
2019-03-18T21:50:39.169Z,98799.00
2019-03-18T21:53:11.046Z,98801.48
2019-03-18T21:55:42.999Z,98807.52
2019-03-18T21:58:14.861Z,98805.98
2019-03-18T22:00:46.727Z,98804.89
2019-03-18T22:03:18.627Z,98808.19
2019-03-18T22:05:51.288Z,98809.96
2019-03-18T22:08:24.277Z,98805.92
2019-03-18T22:10:56.103Z,98811.70
2019-03-18T22:13:27.978Z,98823.11
2019-03-18T22:15:59.849Z,98817.06
2019-03-18T22:18:31.754Z,98820.68
2019-03-18T22:21:03.596Z,98830.65
2019-03-18T22:23:35.569Z,98820.13
2019-03-18T22:26:07.465Z,98819.75
2019-03-18T22:28:39.380Z,98822.67
2019-03-18T22:31:11.240Z,98816.75
2019-03-18T22:33:53.239Z,98823.16
2019-03-18T22:36:25.095Z,98823.66
2019-03-18T22:38:56.971Z,98829.38
2019-03-18T22:41:30.261Z,98831.41
2019-03-18T22:44:02.262Z,98827.63
2019-03-18T22:46:34.135Z,98831.59
2019-03-18T22:49:05.971Z,98834.08
2019-03-18T22:51:37.796Z,98833.63
2019-03-18T22:54:09.658Z,98836.16
2019-03-18T22:56:41.493Z,98838.05
2019-03-18T22:59:13.340Z,98830.96
2019-03-18T23:01:45.171Z,98830.64
2019-03-18T23:04:17.039Z,98824.29
2019-03-18T23:06:48.854Z,98821.80
2019-03-18T23:09:20.708Z,98823.70
2019-03-18T23:11:52.515Z,98821.11
2019-03-18T23:14:25.414Z,98822.50
2019-03-18T23:16:59.842Z,98817.44
2019-03-18T23:19:34.877Z,98824.48
2019-03-18T23:22:07.277Z,98815.45
2019-03-18T23:24:39.210Z,98820.34
2019-03-18T23:27:11.019Z,98818.69
2019-03-18T23:29:42.873Z,98826.75
2019-03-18T23:32:14.796Z,98828.97
2019-03-18T23:34:46.663Z,98832.09
2019-03-18T23:37:18.577Z,98823.56
2019-03-18T23:39:50.429Z,98828.03
2019-03-18T23:42:22.251Z,98826.02
2019-03-18T23:44:54.101Z,98825.18
2019-03-18T23:47:27.410Z,98830.56
2019-03-18T23:50:01.082Z,98830.47
2019-03-18T23:52:32.962Z,98835.40
2019-03-18T23:55:05.945Z,98839.86
2019-03-18T23:57:37.819Z,98831.42
